sensor_id;sensor_type;location;lat;lon;timestamp;temperature;humidity
23377;DHT22;14353;46.070;13.222;2023-04-23T00:01:39;21.90;47.30
23377;DHT22;14353;46.070;13.222;2023-04-23T00:04:07;22.00;47.40
23377;DHT22;14353;46.070;13.222;2023-04-23T00:06:34;21.90;47.30
23377;DHT22;14353;46.070;13.222;2023-04-23T00:09:00;21.90;47.40
23377;DHT22;14353;46.070;13.222;2023-04-23T00:11:26;21.90;47.40
23377;DHT22;14353;46.070;13.222;2023-04-23T00:13:52;21.90;47.40
23377;DHT22;14353;46.070;13.222;2023-04-23T00:16:19;21.90;47.40
23377;DHT22;14353;46.070;13.222;2023-04-23T00:18:45;21.90;47.40
23377;DHT22;14353;46.070;13.222;2023-04-23T00:21:12;21.90;47.50
23377;DHT22;14353;46.070;13.222;2023-04-23T00:23:38;21.90;47.50
23377;DHT22;14353;46.070;13.222;2023-04-23T00:26:04;21.90;47.50
23377;DHT22;14353;46.070;13.222;2023-04-23T00:28:30;21.90;47.50
23377;DHT22;14353;46.070;13.222;2023-04-23T00:30:56;21.90;47.50
23377;DHT22;14353;46.070;13.222;2023-04-23T00:33:22;21.90;47.50
23377;DHT22;14353;46.070;13.222;2023-04-23T00:35:47;21.90;47.50
23377;DHT22;14353;46.070;13.222;2023-04-23T00:38:13;21.90;47.50
23377;DHT22;14353;46.070;13.222;2023-04-23T00:40:39;21.90;47.50
23377;DHT22;14353;46.070;13.222;2023-04-23T00:43:06;21.90;47.50
23377;DHT22;14353;46.070;13.222;2023-04-23T00:45:32;21.90;47.50
23377;DHT22;14353;46.070;13.222;2023-04-23T00:47:58;21.90;47.50
23377;DHT22;14353;46.070;13.222;2023-04-23T00:50:24;21.90;47.50
23377;DHT22;14353;46.070;13.222;2023-04-23T00:52:50;21.80;47.50
23377;DHT22;14353;46.070;13.222;2023-04-23T00:55:16;21.90;47.60
23377;DHT22;14353;46.070;13.222;2023-04-23T00:57:45;21.80;47.60
23377;DHT22;14353;46.070;13.222;2023-04-23T01:00:12;21.80;47.60
23377;DHT22;14353;46.070;13.222;2023-04-23T01:02:38;21.80;47.50
23377;DHT22;14353;46.070;13.222;2023-04-23T01:05:08;21.80;47.60
23377;DHT22;14353;46.070;13.222;2023-04-23T01:07:36;21.80;47.60
23377;DHT22;14353;46.070;13.222;2023-04-23T01:10:03;21.80;47.60
23377;DHT22;14353;46.070;13.222;2023-04-23T01:12:30;21.80;47.70
23377;DHT22;14353;46.070;13.222;2023-04-23T01:14:56;21.80;47.70
23377;DHT22;14353;46.070;13.222;2023-04-23T01:17:22;21.80;47.70
23377;DHT22;14353;46.070;13.222;2023-04-23T01:19:47;21.80;47.70
23377;DHT22;14353;46.070;13.222;2023-04-23T01:22:14;21.80;47.70
23377;DHT22;14353;46.070;13.222;2023-04-23T01:24:41;21.80;47.70
23377;DHT22;14353;46.070;13.222;2023-04-23T01:27:07;21.80;47.80
23377;DHT22;14353;46.070;13.222;2023-04-23T01:29:34;21.80;47.70
23377;DHT22;14353;46.070;13.222;2023-04-23T01:32:01;21.80;47.70
23377;DHT22;14353;46.070;13.222;2023-04-23T01:34:29;21.80;47.70
23377;DHT22;14353;46.070;13.222;2023-04-23T01:36:56;21.80;47.70
23377;DHT22;14353;46.070;13.222;2023-04-23T01:39:22;21.80;47.70
23377;DHT22;14353;46.070;13.222;2023-04-23T01:41:48;21.80;47.70
23377;DHT22;14353;46.070;13.222;2023-04-23T01:44:14;21.80;47.70
23377;DHT22;14353;46.070;13.222;2023-04-23T01:46:39;21.80;47.80
23377;DHT22;14353;46.070;13.222;2023-04-23T01:49:05;21.80;47.80
23377;DHT22;14353;46.070;13.222;2023-04-23T01:51:31;21.80;47.70
23377;DHT22;14353;46.070;13.222;2023-04-23T01:53:57;21.80;47.80
23377;DHT22;14353;46.070;13.222;2023-04-23T01:56:26;21.80;47.80
23377;DHT22;14353;46.070;13.222;2023-04-23T01:58:51;21.80;47.80
23377;DHT22;14353;46.070;13.222;2023-04-23T02:01:18;21.80;47.90
23377;DHT22;14353;46.070;13.222;2023-04-23T02:03:44;21.70;47.80
23377;DHT22;14353;46.070;13.222;2023-04-23T02:06:11;21.70;47.80
23377;DHT22;14353;46.070;13.222;2023-04-23T02:08:37;21.80;47.90
23377;DHT22;14353;46.070;13.222;2023-04-23T02:11:04;21.70;47.80
23377;DHT22;14353;46.070;13.222;2023-04-23T02:13:31;21.70;47.80
23377;DHT22;14353;46.070;13.222;2023-04-23T02:15:57;21.70;47.90
23377;DHT22;14353;46.070;13.222;2023-04-23T02:18:22;21.70;47.90
23377;DHT22;14353;46.070;13.222;2023-04-23T02:20:48;21.70;47.90
23377;DHT22;14353;46.070;13.222;2023-04-23T02:23:14;21.70;47.90
23377;DHT22;14353;46.070;13.222;2023-04-23T02:25:40;21.70;47.90
23377;DHT22;14353;46.070;13.222;2023-04-23T02:28:08;21.70;47.90
23377;DHT22;14353;46.070;13.222;2023-04-23T02:30:36;21.70;47.90
23377;DHT22;14353;46.070;13.222;2023-04-23T02:33:02;21.70;47.90
23377;DHT22;14353;46.070;13.222;2023-04-23T02:35:28;21.70;47.90
23377;DHT22;14353;46.070;13.222;2023-04-23T02:37:54;21.70;47.90
23377;DHT22;14353;46.070;13.222;2023-04-23T02:40:21;21.70;47.90
23377;DHT22;14353;46.070;13.222;2023-04-23T02:42:47;21.70;47.90
23377;DHT22;14353;46.070;13.222;2023-04-23T02:45:13;21.70;47.90
23377;DHT22;14353;46.070;13.222;2023-04-23T02:47:39;21.70;47.90
23377;DHT22;14353;46.070;13.222;2023-04-23T02:50:05;21.70;47.90
23377;DHT22;14353;46.070;13.222;2023-04-23T02:52:32;21.70;47.90
23377;DHT22;14353;46.070;13.222;2023-04-23T02:54:59;21.70;47.90
23377;DHT22;14353;46.070;13.222;2023-04-23T02:57:27;21.70;47.90
23377;DHT22;14353;46.070;13.222;2023-04-23T02:59:53;21.70;47.90
23377;DHT22;14353;46.070;13.222;2023-04-23T03:02:18;21.70;47.90
23377;DHT22;14353;46.070;13.222;2023-04-23T03:04:44;21.70;47.90
23377;DHT22;14353;46.070;13.222;2023-04-23T03:07:10;21.70;47.90
23377;DHT22;14353;46.070;13.222;2023-04-23T03:09:38;21.70;47.90
23377;DHT22;14353;46.070;13.222;2023-04-23T03:12:03;21.60;47.90
23377;DHT22;14353;46.070;13.222;2023-04-23T03:14:29;21.60;47.90
23377;DHT22;14353;46.070;13.222;2023-04-23T03:16:55;21.60;48.10
23377;DHT22;14353;46.070;13.222;2023-04-23T03:19:21;21.60;48.00
23377;DHT22;14353;46.070;13.222;2023-04-23T03:21:46;21.60;48.10
23377;DHT22;14353;46.070;13.222;2023-04-23T03:24:13;21.60;48.10
23377;DHT22;14353;46.070;13.222;2023-04-23T03:26:39;21.60;48.10
23377;DHT22;14353;46.070;13.222;2023-04-23T03:29:05;21.60;48.10
23377;DHT22;14353;46.070;13.222;2023-04-23T03:31:31;21.60;48.10
23377;DHT22;14353;46.070;13.222;2023-04-23T03:33:57;21.60;48.10
23377;DHT22;14353;46.070;13.222;2023-04-23T03:36:23;21.60;48.10
23377;DHT22;14353;46.070;13.222;2023-04-23T03:38:48;21.60;48.10
23377;DHT22;14353;46.070;13.222;2023-04-23T03:41:14;21.60;48.00
23377;DHT22;14353;46.070;13.222;2023-04-23T03:43:40;21.60;48.00
23377;DHT22;14353;46.070;13.222;2023-04-23T03:46:06;21.60;48.00
23377;DHT22;14353;46.070;13.222;2023-04-23T03:48:31;21.70;48.10
23377;DHT22;14353;46.070;13.222;2023-04-23T03:50:57;21.60;48.10
23377;DHT22;14353;46.070;13.222;2023-04-23T03:53:23;21.60;48.10
23377;DHT22;14353;46.070;13.222;2023-04-23T03:55:48;21.60;48.00
23377;DHT22;14353;46.070;13.222;2023-04-23T03:58:14;21.60;48.00
23377;DHT22;14353;46.070;13.222;2023-04-23T04:00:40;21.70;48.10
23377;DHT22;14353;46.070;13.222;2023-04-23T04:03:06;21.60;48.10
23377;DHT22;14353;46.070;13.222;2023-04-23T04:05:32;21.60;48.00
23377;DHT22;14353;46.070;13.222;2023-04-23T04:07:58;21.60;48.00
23377;DHT22;14353;46.070;13.222;2023-04-23T04:10:24;21.60;48.00
23377;DHT22;14353;46.070;13.222;2023-04-23T04:12:50;21.60;48.00
23377;DHT22;14353;46.070;13.222;2023-04-23T04:15:16;21.60;48.10
23377;DHT22;14353;46.070;13.222;2023-04-23T04:17:44;21.60;48.10
23377;DHT22;14353;46.070;13.222;2023-04-23T04:20:10;21.60;48.10
23377;DHT22;14353;46.070;13.222;2023-04-23T04:22:36;21.60;48.10
23377;DHT22;14353;46.070;13.222;2023-04-23T04:25:02;21.60;48.10
23377;DHT22;14353;46.070;13.222;2023-04-23T04:27:29;21.60;48.10
23377;DHT22;14353;46.070;13.222;2023-04-23T04:29:58;21.60;48.10
23377;DHT22;14353;46.070;13.222;2023-04-23T04:32:28;21.60;48.10
23377;DHT22;14353;46.070;13.222;2023-04-23T04:34:55;21.60;48.00
23377;DHT22;14353;46.070;13.222;2023-04-23T04:37:21;21.60;48.00
23377;DHT22;14353;46.070;13.222;2023-04-23T04:39:46;21.60;48.00
23377;DHT22;14353;46.070;13.222;2023-04-23T04:42:12;21.60;48.00
23377;DHT22;14353;46.070;13.222;2023-04-23T04:44:38;21.60;47.90
23377;DHT22;14353;46.070;13.222;2023-04-23T04:47:04;21.60;47.90
23377;DHT22;14353;46.070;13.222;2023-04-23T04:49:32;21.60;47.90
23377;DHT22;14353;46.070;13.222;2023-04-23T04:51:58;21.60;47.90
23377;DHT22;14353;46.070;13.222;2023-04-23T04:54:23;21.70;47.90
23377;DHT22;14353;46.070;13.222;2023-04-23T04:56:49;21.60;47.90
23377;DHT22;14353;46.070;13.222;2023-04-23T04:59:15;21.70;47.90
23377;DHT22;14353;46.070;13.222;2023-04-23T05:01:41;21.70;47.90
23377;DHT22;14353;46.070;13.222;2023-04-23T05:04:07;21.70;47.90
23377;DHT22;14353;46.070;13.222;2023-04-23T05:06:33;21.70;47.80
23377;DHT22;14353;46.070;13.222;2023-04-23T05:08:58;21.70;47.90
23377;DHT22;14353;46.070;13.222;2023-04-23T05:11:24;21.70;47.80
23377;DHT22;14353;46.070;13.222;2023-04-23T05:13:50;21.70;47.80
23377;DHT22;14353;46.070;13.222;2023-04-23T05:16:17;21.70;47.80
23377;DHT22;14353;46.070;13.222;2023-04-23T05:18:42;21.70;47.80
23377;DHT22;14353;46.070;13.222;2023-04-23T05:21:11;21.70;47.70
23377;DHT22;14353;46.070;13.222;2023-04-23T05:23:37;21.70;47.70
23377;DHT22;14353;46.070;13.222;2023-04-23T05:26:03;21.70;47.70
23377;DHT22;14353;46.070;13.222;2023-04-23T05:28:29;21.70;47.70
23377;DHT22;14353;46.070;13.222;2023-04-23T05:30:55;21.70;47.70
23377;DHT22;14353;46.070;13.222;2023-04-23T05:33:21;21.70;47.60
23377;DHT22;14353;46.070;13.222;2023-04-23T05:35:47;21.70;47.60
23377;DHT22;14353;46.070;13.222;2023-04-23T05:38:13;21.80;47.50
23377;DHT22;14353;46.070;13.222;2023-04-23T05:40:38;21.80;47.50
23377;DHT22;14353;46.070;13.222;2023-04-23T05:43:04;21.80;47.40
23377;DHT22;14353;46.070;13.222;2023-04-23T05:45:31;21.90;47.40
23377;DHT22;14353;46.070;13.222;2023-04-23T05:47:57;21.90;47.30
23377;DHT22;14353;46.070;13.222;2023-04-23T05:50:23;21.90;47.90
23377;DHT22;14353;46.070;13.222;2023-04-23T05:52:48;21.90;47.20
23377;DHT22;14353;46.070;13.222;2023-04-23T05:55:14;21.90;47.10
23377;DHT22;14353;46.070;13.222;2023-04-23T05:57:40;22.00;47.10
23377;DHT22;14353;46.070;13.222;2023-04-23T06:00:07;22.00;47.00
23377;DHT22;14353;46.070;13.222;2023-04-23T06:02:39;22.00;47.00
23377;DHT22;14353;46.070;13.222;2023-04-23T06:05:06;22.00;47.00
23377;DHT22;14353;46.070;13.222;2023-04-23T06:07:32;22.00;46.90
23377;DHT22;14353;46.070;13.222;2023-04-23T06:09:58;22.10;46.90
23377;DHT22;14353;46.070;13.222;2023-04-23T06:12:24;22.10;46.90
23377;DHT22;14353;46.070;13.222;2023-04-23T06:14:51;22.10;46.90
23377;DHT22;14353;46.070;13.222;2023-04-23T06:17:17;22.10;46.80
23377;DHT22;14353;46.070;13.222;2023-04-23T06:19:42;22.10;46.70
23377;DHT22;14353;46.070;13.222;2023-04-23T06:22:08;22.20;46.80
23377;DHT22;14353;46.070;13.222;2023-04-23T06:24:34;22.20;46.70
23377;DHT22;14353;46.070;13.222;2023-04-23T06:27:00;22.20;46.70
23377;DHT22;14353;46.070;13.222;2023-04-23T06:29:27;22.20;46.60
23377;DHT22;14353;46.070;13.222;2023-04-23T06:31:56;22.10;46.60
23377;DHT22;14353;46.070;13.222;2023-04-23T06:34:25;22.20;46.60
23377;DHT22;14353;46.070;13.222;2023-04-23T06:36:51;22.20;46.60
23377;DHT22;14353;46.070;13.222;2023-04-23T06:39:16;22.20;46.60
23377;DHT22;14353;46.070;13.222;2023-04-23T06:41:42;22.20;46.60
23377;DHT22;14353;46.070;13.222;2023-04-23T06:44:08;22.20;46.70
23377;DHT22;14353;46.070;13.222;2023-04-23T06:46:34;22.10;46.50
23377;DHT22;14353;46.070;13.222;2023-04-23T06:49:00;22.20;46.60
23377;DHT22;14353;46.070;13.222;2023-04-23T06:51:26;22.20;46.60
23377;DHT22;14353;46.070;13.222;2023-04-23T06:53:54;22.20;46.60
23377;DHT22;14353;46.070;13.222;2023-04-23T06:56:20;22.20;46.70
23377;DHT22;14353;46.070;13.222;2023-04-23T06:58:46;22.20;46.70
23377;DHT22;14353;46.070;13.222;2023-04-23T07:01:12;22.20;46.70
23377;DHT22;14353;46.070;13.222;2023-04-23T07:03:38;22.20;46.70
23377;DHT22;14353;46.070;13.222;2023-04-23T07:06:03;22.20;46.70
23377;DHT22;14353;46.070;13.222;2023-04-23T07:08:29;22.20;46.70
23377;DHT22;14353;46.070;13.222;2023-04-23T07:10:55;22.20;46.60
23377;DHT22;14353;46.070;13.222;2023-04-23T07:13:21;22.20;46.60
23377;DHT22;14353;46.070;13.222;2023-04-23T07:15:46;22.20;46.50
23377;DHT22;14353;46.070;13.222;2023-04-23T07:18:13;22.30;46.50
23377;DHT22;14353;46.070;13.222;2023-04-23T07:20:39;22.30;46.50
23377;DHT22;14353;46.070;13.222;2023-04-23T07:23:05;22.30;46.30
23377;DHT22;14353;46.070;13.222;2023-04-23T07:25:30;22.40;46.30
23377;DHT22;14353;46.070;13.222;2023-04-23T07:27:57;22.40;46.20
23377;DHT22;14353;46.070;13.222;2023-04-23T07:30:23;22.40;46.20
23377;DHT22;14353;46.070;13.222;2023-04-23T07:32:50;22.40;46.20
23377;DHT22;14353;46.070;13.222;2023-04-23T07:35:15;22.40;46.20
23377;DHT22;14353;46.070;13.222;2023-04-23T07:37:41;22.40;46.20
23377;DHT22;14353;46.070;13.222;2023-04-23T07:40:07;22.50;46.10
23377;DHT22;14353;46.070;13.222;2023-04-23T07:42:33;22.50;45.90
23377;DHT22;14353;46.070;13.222;2023-04-23T07:44:59;22.50;45.90
23377;DHT22;14353;46.070;13.222;2023-04-23T07:47:25;22.50;45.90
23377;DHT22;14353;46.070;13.222;2023-04-23T07:49:51;22.50;45.90
23377;DHT22;14353;46.070;13.222;2023-04-23T07:52:17;22.50;45.90
23377;DHT22;14353;46.070;13.222;2023-04-23T07:54:43;22.50;45.90
23377;DHT22;14353;46.070;13.222;2023-04-23T07:57:09;22.50;45.90
23377;DHT22;14353;46.070;13.222;2023-04-23T07:59:36;22.50;46.00
23377;DHT22;14353;46.070;13.222;2023-04-23T08:02:04;22.50;46.00
23377;DHT22;14353;46.070;13.222;2023-04-23T08:04:30;22.50;46.00
23377;DHT22;14353;46.070;13.222;2023-04-23T08:06:55;22.50;46.00
23377;DHT22;14353;46.070;13.222;2023-04-23T08:09:21;22.50;46.00
23377;DHT22;14353;46.070;13.222;2023-04-23T08:11:47;22.50;46.00
23377;DHT22;14353;46.070;13.222;2023-04-23T08:14:13;22.50;45.90
23377;DHT22;14353;46.070;13.222;2023-04-23T08:16:39;22.60;45.90
23377;DHT22;14353;46.070;13.222;2023-04-23T08:19:05;22.60;45.70
23377;DHT22;14353;46.070;13.222;2023-04-23T08:21:31;22.60;45.60
23377;DHT22;14353;46.070;13.222;2023-04-23T08:23:57;22.70;45.60
23377;DHT22;14353;46.070;13.222;2023-04-23T08:26:23;22.70;45.60
23377;DHT22;14353;46.070;13.222;2023-04-23T08:28:48;22.70;45.60
23377;DHT22;14353;46.070;13.222;2023-04-23T08:31:15;22.70;46.10
23377;DHT22;14353;46.070;13.222;2023-04-23T08:33:41;22.70;45.50
23377;DHT22;14353;46.070;13.222;2023-04-23T08:36:07;22.70;45.30
23377;DHT22;14353;46.070;13.222;2023-04-23T08:38:33;22.80;45.40
23377;DHT22;14353;46.070;13.222;2023-04-23T08:41:00;22.80;45.40
23377;DHT22;14353;46.070;13.222;2023-04-23T08:43:37;22.80;45.40
23377;DHT22;14353;46.070;13.222;2023-04-23T08:46:10;22.80;45.40
23377;DHT22;14353;46.070;13.222;2023-04-23T08:48:36;22.70;45.30
23377;DHT22;14353;46.070;13.222;2023-04-23T08:51:03;22.80;45.30
23377;DHT22;14353;46.070;13.222;2023-04-23T08:53:30;22.80;45.30
23377;DHT22;14353;46.070;13.222;2023-04-23T08:55:57;22.80;45.30
23377;DHT22;14353;46.070;13.222;2023-04-23T08:58:24;22.80;45.30
23377;DHT22;14353;46.070;13.222;2023-04-23T09:00:53;22.80;45.20
23377;DHT22;14353;46.070;13.222;2023-04-23T09:03:19;22.90;45.20
23377;DHT22;14353;46.070;13.222;2023-04-23T09:05:46;22.90;45.10
23377;DHT22;14353;46.070;13.222;2023-04-23T09:08:12;22.90;45.00
23377;DHT22;14353;46.070;13.222;2023-04-23T09:10:39;22.90;45.00
23377;DHT22;14353;46.070;13.222;2023-04-23T09:13:08;23.00;44.80
23377;DHT22;14353;46.070;13.222;2023-04-23T09:15:36;23.00;44.90
23377;DHT22;14353;46.070;13.222;2023-04-23T09:18:08;22.90;44.80
23377;DHT22;14353;46.070;13.222;2023-04-23T09:20:36;23.00;44.80
23377;DHT22;14353;46.070;13.222;2023-04-23T09:23:13;23.00;44.80
23377;DHT22;14353;46.070;13.222;2023-04-23T09:25:39;23.00;44.80
23377;DHT22;14353;46.070;13.222;2023-04-23T09:28:08;23.00;44.70
23377;DHT22;14353;46.070;13.222;2023-04-23T09:30:47;23.10;44.70
23377;DHT22;14353;46.070;13.222;2023-04-23T09:33:15;23.20;44.50
23377;DHT22;14353;46.070;13.222;2023-04-23T09:35:41;23.20;44.30
23377;DHT22;14353;46.070;13.222;2023-04-23T09:38:08;23.30;44.20
23377;DHT22;14353;46.070;13.222;2023-04-23T09:40:35;23.30;44.00
23377;DHT22;14353;46.070;13.222;2023-04-23T09:43:03;23.30;44.00
23377;DHT22;14353;46.070;13.222;2023-04-23T09:45:29;23.40;44.00
23377;DHT22;14353;46.070;13.222;2023-04-23T09:47:57;23.50;43.90
23377;DHT22;14353;46.070;13.222;2023-04-23T09:50:34;23.50;43.80
23377;DHT22;14353;46.070;13.222;2023-04-23T09:53:01;23.50;43.70
23377;DHT22;14353;46.070;13.222;2023-04-23T09:55:37;23.50;43.70
23377;DHT22;14353;46.070;13.222;2023-04-23T09:58:05;23.50;43.70
23377;DHT22;14353;46.070;13.222;2023-04-23T10:00:33;23.50;43.60
23377;DHT22;14353;46.070;13.222;2023-04-23T10:02:59;23.60;43.60
23377;DHT22;14353;46.070;13.222;2023-04-23T10:05:25;23.50;43.60
23377;DHT22;14353;46.070;13.222;2023-04-23T10:07:51;23.60;43.60
23377;DHT22;14353;46.070;13.222;2023-04-23T10:10:18;23.60;43.50
23377;DHT22;14353;46.070;13.222;2023-04-23T10:12:45;23.70;43.40
23377;DHT22;14353;46.070;13.222;2023-04-23T10:15:12;23.70;43.30
23377;DHT22;14353;46.070;13.222;2023-04-23T10:17:39;23.70;43.30
23377;DHT22;14353;46.070;13.222;2023-04-23T10:20:07;23.70;43.40
23377;DHT22;14353;46.070;13.222;2023-04-23T10:22:34;23.70;43.40
23377;DHT22;14353;46.070;13.222;2023-04-23T10:25:04;23.60;43.30
23377;DHT22;14353;46.070;13.222;2023-04-23T10:27:40;23.60;43.40
23377;DHT22;14353;46.070;13.222;2023-04-23T10:30:08;23.60;43.50
23377;DHT22;14353;46.070;13.222;2023-04-23T10:32:36;23.60;43.50
23377;DHT22;14353;46.070;13.222;2023-04-23T10:35:03;23.60;43.40
23377;DHT22;14353;46.070;13.222;2023-04-23T10:37:29;23.70;43.20
23377;DHT22;14353;46.070;13.222;2023-04-23T10:40:08;23.80;43.10
23377;DHT22;14353;46.070;13.222;2023-04-23T10:42:38;23.80;43.10
23377;DHT22;14353;46.070;13.222;2023-04-23T10:45:14;23.80;43.00
23377;DHT22;14353;46.070;13.222;2023-04-23T10:47:44;23.90;43.00
23377;DHT22;14353;46.070;13.222;2023-04-23T10:50:27;23.90;42.90
23377;DHT22;14353;46.070;13.222;2023-04-23T10:52:53;24.00;42.70
23377;DHT22;14353;46.070;13.222;2023-04-23T10:55:26;24.10;42.60
23377;DHT22;14353;46.070;13.222;2023-04-23T10:58:04;24.20;42.30
23377;DHT22;14353;46.070;13.222;2023-04-23T11:00:45;24.20;42.30
23377;DHT22;14353;46.070;13.222;2023-04-23T11:03:36;24.20;42.20
23377;DHT22;14353;46.070;13.222;2023-04-23T11:06:05;24.20;42.10
23377;DHT22;14353;46.070;13.222;2023-04-23T11:08:31;24.30;42.20
23377;DHT22;14353;46.070;13.222;2023-04-23T11:11:00;24.30;42.20
23377;DHT22;14353;46.070;13.222;2023-04-23T11:13:27;24.20;42.00
23377;DHT22;14353;46.070;13.222;2023-04-23T11:19:14;24.20;42.30
23377;DHT22;14353;46.070;13.222;2023-04-23T11:22:05;24.10;42.40
23377;DHT22;14353;46.070;13.222;2023-04-23T11:24:36;24.10;42.50
23377;DHT22;14353;46.070;13.222;2023-04-23T11:27:06;24.10;42.40
23377;DHT22;14353;46.070;13.222;2023-04-23T11:29:32;24.20;42.30
23377;DHT22;14353;46.070;13.222;2023-04-23T11:31:58;24.20;42.20
23377;DHT22;14353;46.070;13.222;2023-04-23T11:34:24;24.20;42.20
23377;DHT22;14353;46.070;13.222;2023-04-23T11:36:52;24.20;42.20
23377;DHT22;14353;46.070;13.222;2023-04-23T11:39:20;24.20;42.20
23377;DHT22;14353;46.070;13.222;2023-04-23T11:41:46;24.20;42.20
23377;DHT22;14353;46.070;13.222;2023-04-23T11:44:12;24.30;42.20
23377;DHT22;14353;46.070;13.222;2023-04-23T11:46:38;24.30;42.00
23377;DHT22;14353;46.070;13.222;2023-04-23T11:49:04;24.40;41.90
23377;DHT22;14353;46.070;13.222;2023-04-23T11:51:30;24.50;41.70
23377;DHT22;14353;46.070;13.222;2023-04-23T11:54:03;24.50;41.70
23377;DHT22;14353;46.070;13.222;2023-04-23T11:56:30;24.60;41.60
23377;DHT22;14353;46.070;13.222;2023-04-23T11:59:03;24.50;41.60
23377;DHT22;14353;46.070;13.222;2023-04-23T12:02:01;24.50;41.60
23377;DHT22;14353;46.070;13.222;2023-04-23T12:04:29;24.60;41.50
23377;DHT22;14353;46.070;13.222;2023-04-23T12:06:56;24.70;41.40
23377;DHT22;14353;46.070;13.222;2023-04-23T12:09:23;24.70;41.30
23377;DHT22;14353;46.070;13.222;2023-04-23T12:11:49;24.80;41.30
23377;DHT22;14353;46.070;13.222;2023-04-23T12:14:16;24.70;41.20
23377;DHT22;14353;46.070;13.222;2023-04-23T12:16:44;24.60;41.40
23377;DHT22;14353;46.070;13.222;2023-04-23T12:19:18;24.50;41.60
23377;DHT22;14353;46.070;13.222;2023-04-23T12:21:48;24.50;41.70
23377;DHT22;14353;46.070;13.222;2023-04-23T12:24:15;24.50;41.70
23377;DHT22;14353;46.070;13.222;2023-04-23T12:26:41;24.40;41.80
23377;DHT22;14353;46.070;13.222;2023-04-23T12:29:07;24.50;41.80
23377;DHT22;14353;46.070;13.222;2023-04-23T12:31:36;24.40;41.80
23377;DHT22;14353;46.070;13.222;2023-04-23T12:34:08;24.40;41.80
23377;DHT22;14353;46.070;13.222;2023-04-23T12:36:36;24.40;41.90
23377;DHT22;14353;46.070;13.222;2023-04-23T12:41:52;24.40;42.10
23377;DHT22;14353;46.070;13.222;2023-04-23T12:44:18;24.40;42.10
23377;DHT22;14353;46.070;13.222;2023-04-23T12:46:44;24.40;42.10
23377;DHT22;14353;46.070;13.222;2023-04-23T12:49:10;24.40;42.00
23377;DHT22;14353;46.070;13.222;2023-04-23T12:51:35;24.40;42.00
23377;DHT22;14353;46.070;13.222;2023-04-23T12:54:01;24.40;41.90
23377;DHT22;14353;46.070;13.222;2023-04-23T12:56:27;24.50;41.90
23377;DHT22;14353;46.070;13.222;2023-04-23T12:58:53;24.50;41.90
23377;DHT22;14353;46.070;13.222;2023-04-23T13:01:19;24.50;41.70
23377;DHT22;14353;46.070;13.222;2023-04-23T13:03:44;24.50;41.80
23377;DHT22;14353;46.070;13.222;2023-04-23T13:06:10;24.50;41.90
23377;DHT22;14353;46.070;13.222;2023-04-23T13:08:36;24.40;41.80
23377;DHT22;14353;46.070;13.222;2023-04-23T13:11:01;24.40;42.00
23377;DHT22;14353;46.070;13.222;2023-04-23T13:13:27;24.40;42.00
23377;DHT22;14353;46.070;13.222;2023-04-23T13:15:53;24.30;42.10
23377;DHT22;14353;46.070;13.222;2023-04-23T13:18:19;24.30;42.20
23377;DHT22;14353;46.070;13.222;2023-04-23T13:20:47;24.20;42.30
23377;DHT22;14353;46.070;13.222;2023-04-23T13:23:12;24.20;42.40
23377;DHT22;14353;46.070;13.222;2023-04-23T13:25:38;24.20;42.50
23377;DHT22;14353;46.070;13.222;2023-04-23T13:28:03;24.10;42.50
23377;DHT22;14353;46.070;13.222;2023-04-23T13:30:29;24.10;42.60
23377;DHT22;14353;46.070;13.222;2023-04-23T13:32:55;24.00;42.70
23377;DHT22;14353;46.070;13.222;2023-04-23T13:35:22;24.10;42.80
23377;DHT22;14353;46.070;13.222;2023-04-23T13:37:48;24.10;42.80
23377;DHT22;14353;46.070;13.222;2023-04-23T13:40:14;24.00;42.70
23377;DHT22;14353;46.070;13.222;2023-04-23T13:42:40;24.10;42.70
23377;DHT22;14353;46.070;13.222;2023-04-23T13:45:06;24.10;42.60
23377;DHT22;14353;46.070;13.222;2023-04-23T13:47:32;24.20;42.50
23377;DHT22;14353;46.070;13.222;2023-04-23T13:49:59;24.30;42.40
23377;DHT22;14353;46.070;13.222;2023-04-23T13:52:31;24.40;42.20
23377;DHT22;14353;46.070;13.222;2023-04-23T13:54:57;24.40;42.10
23377;DHT22;14353;46.070;13.222;2023-04-23T13:57:25;24.50;42.00
23377;DHT22;14353;46.070;13.222;2023-04-23T13:59:51;24.50;42.00
23377;DHT22;14353;46.070;13.222;2023-04-23T14:02:20;24.50;42.00
23377;DHT22;14353;46.070;13.222;2023-04-23T14:04:48;24.50;41.90
23377;DHT22;14353;46.070;13.222;2023-04-23T14:07:14;24.60;42.00
23377;DHT22;14353;46.070;13.222;2023-04-23T14:09:39;24.60;42.00
23377;DHT22;14353;46.070;13.222;2023-04-23T14:12:05;24.60;42.00
23377;DHT22;14353;46.070;13.222;2023-04-23T14:14:31;24.60;42.00
23377;DHT22;14353;46.070;13.222;2023-04-23T14:16:56;24.60;41.90
23377;DHT22;14353;46.070;13.222;2023-04-23T14:19:22;24.60;42.00
23377;DHT22;14353;46.070;13.222;2023-04-23T14:21:48;24.50;42.00
23377;DHT22;14353;46.070;13.222;2023-04-23T14:26:46;24.50;42.00
23377;DHT22;14353;46.070;13.222;2023-04-23T14:29:29;24.60;42.10
23377;DHT22;14353;46.070;13.222;2023-04-23T14:31:56;24.60;42.70
23377;DHT22;14353;46.070;13.222;2023-04-23T14:34:21;24.60;42.00
23377;DHT22;14353;46.070;13.222;2023-04-23T14:36:47;24.60;42.00
23377;DHT22;14353;46.070;13.222;2023-04-23T14:39:16;24.60;42.00
23377;DHT22;14353;46.070;13.222;2023-04-23T14:41:42;24.60;41.90
23377;DHT22;14353;46.070;13.222;2023-04-23T14:44:08;24.70;41.90
23377;DHT22;14353;46.070;13.222;2023-04-23T14:46:33;24.70;42.00
23377;DHT22;14353;46.070;13.222;2023-04-23T14:48:59;24.70;42.00
23377;DHT22;14353;46.070;13.222;2023-04-23T14:51:25;24.70;42.00
23377;DHT22;14353;46.070;13.222;2023-04-23T14:53:52;24.70;41.90
23377;DHT22;14353;46.070;13.222;2023-04-23T14:56:17;24.70;41.90
23377;DHT22;14353;46.070;13.222;2023-04-23T14:58:43;24.70;41.90
23377;DHT22;14353;46.070;13.222;2023-04-23T15:01:09;24.80;41.90
23377;DHT22;14353;46.070;13.222;2023-04-23T15:03:35;24.80;41.90
23377;DHT22;14353;46.070;13.222;2023-04-23T15:06:02;24.80;41.80
23377;DHT22;14353;46.070;13.222;2023-04-23T15:08:28;24.80;41.80
23377;DHT22;14353;46.070;13.222;2023-04-23T15:10:54;24.80;41.70
23377;DHT22;14353;46.070;13.222;2023-04-23T15:13:54;24.90;41.70
23377;DHT22;14353;46.070;13.222;2023-04-23T15:16:26;24.80;41.70
23377;DHT22;14353;46.070;13.222;2023-04-23T15:18:55;24.80;41.80
23377;DHT22;14353;46.070;13.222;2023-04-23T15:21:21;24.80;41.80
23377;DHT22;14353;46.070;13.222;2023-04-23T15:23:47;24.70;41.90